sensor_id;sensor_type;location;lat;lon;timestamp;pressure;altitude;pressure_sealevel;temperature;humidity
59759;BME280;61150;62.516;17.862;2022-08-30T00:00:03;101934.88;;;12.76;60.02
59759;BME280;61150;62.516;17.862;2022-08-30T00:02:32;101937.59;;;12.63;60.19
59759;BME280;61150;62.516;17.862;2022-08-30T00:05:03;101934.11;;;12.56;60.18
59759;BME280;61150;62.516;17.862;2022-08-30T00:07:31;101939.53;;;12.60;60.27
59759;BME280;61150;62.516;17.862;2022-08-30T00:10:00;101937.11;;;12.64;60.31
59759;BME280;61150;62.516;17.862;2022-08-30T00:12:28;101934.47;;;12.57;60.40
59759;BME280;61150;62.516;17.862;2022-08-30T00:14:57;101934.64;;;12.71;60.45
59759;BME280;61150;62.516;17.862;2022-08-30T00:17:26;101935.31;;;12.54;60.66
59759;BME280;61150;62.516;17.862;2022-08-30T00:19:55;101942.07;;;12.62;60.52
59759;BME280;61150;62.516;17.862;2022-08-30T00:22:24;101939.27;;;12.51;60.63
59759;BME280;61150;62.516;17.862;2022-08-30T00:24:53;101938.17;;;12.48;60.73
59759;BME280;61150;62.516;17.862;2022-08-30T00:27:21;101933.96;;;12.57;60.73
59759;BME280;61150;62.516;17.862;2022-08-30T00:29:50;101935.68;;;12.49;60.81
59759;BME280;61150;62.516;17.862;2022-08-30T00:32:19;101935.61;;;12.52;60.88
59759;BME280;61150;62.516;17.862;2022-08-30T00:34:48;101938.90;;;12.38;60.99
59759;BME280;61150;62.516;17.862;2022-08-30T00:37:17;101939.09;;;12.47;61.21
59759;BME280;61150;62.516;17.862;2022-08-30T00:39:46;101937.88;;;12.35;61.25
59759;BME280;61150;62.516;17.862;2022-08-30T00:42:16;101942.46;;;12.41;61.08
59759;BME280;61150;62.516;17.862;2022-08-30T00:44:46;101939.52;;;12.48;60.99
59759;BME280;61150;62.516;17.862;2022-08-30T00:47:15;101941.26;;;12.34;61.00
59759;BME280;61150;62.516;17.862;2022-08-30T00:49:46;101939.39;;;12.40;60.80
59759;BME280;61150;62.516;17.862;2022-08-30T00:52:17;101940.48;;;12.41;60.81
59759;BME280;61150;62.516;17.862;2022-08-30T00:54:50;101940.88;;;12.37;60.90
59759;BME280;61150;62.516;17.862;2022-08-30T00:57:18;101941.68;;;12.48;60.76
59759;BME280;61150;62.516;17.862;2022-08-30T00:59:48;101945.51;;;12.53;60.77
59759;BME280;61150;62.516;17.862;2022-08-30T01:02:54;101945.69;;;12.45;61.17
59759;BME280;61150;62.516;17.862;2022-08-30T01:05:23;101946.08;;;12.27;61.09
59759;BME280;61150;62.516;17.862;2022-08-30T01:07:51;101944.91;;;12.33;60.73
59759;BME280;61150;62.516;17.862;2022-08-30T01:10:21;101949.09;;;12.40;60.80
59759;BME280;61150;62.516;17.862;2022-08-30T01:12:49;101942.20;;;12.58;60.47
59759;BME280;61150;62.516;17.862;2022-08-30T01:15:18;101946.21;;;12.49;60.77
59759;BME280;61150;62.516;17.862;2022-08-30T01:17:47;101944.96;;;12.56;60.65
59759;BME280;61150;62.516;17.862;2022-08-30T01:20:20;101942.71;;;12.50;60.59
59759;BME280;61150;62.516;17.862;2022-08-30T01:23:02;101949.30;;;12.64;60.63
59759;BME280;61150;62.516;17.862;2022-08-30T01:25:33;101948.41;;;12.52;60.66
59759;BME280;61150;62.516;17.862;2022-08-30T01:28:05;101952.57;;;12.47;60.55
59759;BME280;61150;62.516;17.862;2022-08-30T01:30:34;101951.71;;;12.54;60.63
59759;BME280;61150;62.516;17.862;2022-08-30T01:33:03;101953.58;;;12.44;60.73
59759;BME280;61150;62.516;17.862;2022-08-30T01:35:35;101955.70;;;12.50;60.79
59759;BME280;61150;62.516;17.862;2022-08-30T01:38:06;101952.56;;;12.47;60.57
59759;BME280;61150;62.516;17.862;2022-08-30T01:40:34;101958.84;;;12.59;60.62
59759;BME280;61150;62.516;17.862;2022-08-30T01:43:03;101954.89;;;12.66;60.59
59759;BME280;61150;62.516;17.862;2022-08-30T01:45:32;101954.97;;;12.44;60.67
59759;BME280;61150;62.516;17.862;2022-08-30T01:48:01;101952.40;;;12.59;60.62
59759;BME280;61150;62.516;17.862;2022-08-30T01:50:30;101952.37;;;12.48;60.60
59759;BME280;61150;62.516;17.862;2022-08-30T01:52:59;101950.75;;;12.48;60.30
59759;BME280;61150;62.516;17.862;2022-08-30T01:55:27;101947.87;;;12.51;60.42
59759;BME280;61150;62.516;17.862;2022-08-30T01:57:56;101950.86;;;12.51;60.54
59759;BME280;61150;62.516;17.862;2022-08-30T02:00:25;101951.42;;;12.56;60.59
59759;BME280;61150;62.516;17.862;2022-08-30T02:02:54;101949.80;;;12.36;60.54
59759;BME280;61150;62.516;17.862;2022-08-30T02:05:24;101953.11;;;12.51;60.47
59759;BME280;61150;62.516;17.862;2022-08-30T02:07:53;101963.12;;;12.51;60.38
59759;BME280;61150;62.516;17.862;2022-08-30T02:10:22;101958.86;;;12.51;60.41
59759;BME280;61150;62.516;17.862;2022-08-30T02:12:51;101962.20;;;12.40;60.59
59759;BME280;61150;62.516;17.862;2022-08-30T02:15:20;101961.01;;;12.47;60.79
59759;BME280;61150;62.516;17.862;2022-08-30T02:17:49;101961.89;;;12.39;60.75
59759;BME280;61150;62.516;17.862;2022-08-30T02:20:18;101965.75;;;12.45;60.86
59759;BME280;61150;62.516;17.862;2022-08-30T02:22:47;101960.10;;;12.35;61.10
59759;BME280;61150;62.516;17.862;2022-08-30T02:25:15;101967.58;;;12.35;61.30
59759;BME280;61150;62.516;17.862;2022-08-30T02:27:44;101972.16;;;12.13;61.52
59759;BME280;61150;62.516;17.862;2022-08-30T02:30:13;101969.84;;;12.19;61.54
59759;BME280;61150;62.516;17.862;2022-08-30T02:32:42;101971.85;;;12.11;61.87
59759;BME280;61150;62.516;17.862;2022-08-30T02:35:11;101973.40;;;12.08;61.70
59759;BME280;61150;62.516;17.862;2022-08-30T02:37:40;101971.99;;;12.04;61.85
59759;BME280;61150;62.516;17.862;2022-08-30T02:40:10;101971.33;;;12.06;61.82
59759;BME280;61150;62.516;17.862;2022-08-30T02:42:37;101969.27;;;11.97;61.85
59759;BME280;61150;62.516;17.862;2022-08-30T02:45:07;101965.97;;;11.88;61.97
59759;BME280;61150;62.516;17.862;2022-08-30T02:47:35;101962.29;;;11.94;61.59
59759;BME280;61150;62.516;17.862;2022-08-30T02:50:06;101963.33;;;11.97;61.44
59759;BME280;61150;62.516;17.862;2022-08-30T02:52:36;101959.87;;;12.01;61.35
59759;BME280;61150;62.516;17.862;2022-08-30T02:55:06;101955.89;;;12.11;60.87
59759;BME280;61150;62.516;17.862;2022-08-30T02:57:35;101959.90;;;12.07;60.68
59759;BME280;61150;62.516;17.862;2022-08-30T03:00:05;101957.94;;;12.23;60.58
59759;BME280;61150;62.516;17.862;2022-08-30T03:02:34;101953.68;;;12.27;60.62
59759;BME280;61150;62.516;17.862;2022-08-30T03:05:03;101956.03;;;12.29;60.27
59759;BME280;61150;62.516;17.862;2022-08-30T03:07:32;101949.71;;;12.22;60.33
59759;BME280;61150;62.516;17.862;2022-08-30T03:10:01;101947.65;;;12.23;60.44
59759;BME280;61150;62.516;17.862;2022-08-30T03:12:30;101951.01;;;12.31;60.25
59759;BME280;61150;62.516;17.862;2022-08-30T03:14:59;101950.05;;;12.26;60.05
59759;BME280;61150;62.516;17.862;2022-08-30T03:17:27;101954.34;;;12.29;60.24
59759;BME280;61150;62.516;17.862;2022-08-30T03:19:56;101953.06;;;12.27;60.09
59759;BME280;61150;62.516;17.862;2022-08-30T03:22:25;101959.16;;;12.14;60.29
59759;BME280;61150;62.516;17.862;2022-08-30T03:24:54;101957.59;;;12.25;60.38
59759;BME280;61150;62.516;17.862;2022-08-30T03:27:23;101961.56;;;12.17;60.30
59759;BME280;61150;62.516;17.862;2022-08-30T03:29:52;101965.29;;;12.30;60.44
59759;BME280;61150;62.516;17.862;2022-08-30T03:32:21;101965.51;;;12.25;60.42
59759;BME280;61150;62.516;17.862;2022-08-30T03:34:49;101967.23;;;12.31;60.52
59759;BME280;61150;62.516;17.862;2022-08-30T03:37:18;101972.19;;;12.21;60.55
59759;BME280;61150;62.516;17.862;2022-08-30T03:39:47;101977.05;;;12.31;60.44
59759;BME280;61150;62.516;17.862;2022-08-30T03:42:16;101979.68;;;12.25;60.65
59759;BME280;61150;62.516;17.862;2022-08-30T03:44:45;101983.48;;;12.16;60.67
59759;BME280;61150;62.516;17.862;2022-08-30T03:47:14;101980.25;;;12.22;60.36
59759;BME280;61150;62.516;17.862;2022-08-30T03:49:43;101980.96;;;12.18;60.26
59759;BME280;61150;62.516;17.862;2022-08-30T03:52:12;101982.80;;;12.23;60.33
59759;BME280;61150;62.516;17.862;2022-08-30T03:54:40;101980.77;;;12.18;60.42
59759;BME280;61150;62.516;17.862;2022-08-30T03:57:09;101974.09;;;12.29;60.25
59759;BME280;61150;62.516;17.862;2022-08-30T03:59:38;101978.74;;;12.20;60.50
59759;BME280;61150;62.516;17.862;2022-08-30T04:02:58;101983.85;;;12.19;60.85
59759;BME280;61150;62.516;17.862;2022-08-30T04:05:27;101985.44;;;12.18;61.05
59759;BME280;61150;62.516;17.862;2022-08-30T04:07:56;101984.22;;;12.17;60.62
59759;BME280;61150;62.516;17.862;2022-08-30T04:10:25;101983.48;;;12.16;60.57
59759;BME280;61150;62.516;17.862;2022-08-30T04:12:54;101985.26;;;12.11;60.48
59759;BME280;61150;62.516;17.862;2022-08-30T04:15:23;101985.21;;;12.22;60.12
59759;BME280;61150;62.516;17.862;2022-08-30T04:17:52;101982.10;;;12.23;60.03
59759;BME280;61150;62.516;17.862;2022-08-30T04:20:20;101979.02;;;12.52;59.68
59759;BME280;61150;62.516;17.862;2022-08-30T04:22:49;101977.45;;;12.33;59.60
59759;BME280;61150;62.516;17.862;2022-08-30T04:25:18;101978.52;;;12.43;59.49
59759;BME280;61150;62.516;17.862;2022-08-30T04:27:47;101977.86;;;12.41;59.79
59759;BME280;61150;62.516;17.862;2022-08-30T04:30:17;101984.99;;;12.56;59.78
59759;BME280;61150;62.516;17.862;2022-08-30T04:32:45;101987.90;;;12.41;59.70
59759;BME280;61150;62.516;17.862;2022-08-30T04:35:14;101986.87;;;12.38;59.78
59759;BME280;61150;62.516;17.862;2022-08-30T04:37:42;101990.58;;;12.27;59.55
59759;BME280;61150;62.516;17.862;2022-08-30T04:40:12;102000.11;;;12.35;59.69
59759;BME280;61150;62.516;17.862;2022-08-30T04:42:40;102003.77;;;12.46;59.60
59759;BME280;61150;62.516;17.862;2022-08-30T04:45:11;102000.81;;;12.46;59.60
59759;BME280;61150;62.516;17.862;2022-08-30T04:47:40;102007.34;;;12.64;59.32
59759;BME280;61150;62.516;17.862;2022-08-30T04:50:12;102005.03;;;12.54;59.29
59759;BME280;61150;62.516;17.862;2022-08-30T04:52:41;102003.17;;;12.79;59.03
59759;BME280;61150;62.516;17.862;2022-08-30T04:55:11;102004.60;;;12.66;59.09
59759;BME280;61150;62.516;17.862;2022-08-30T04:57:41;102005.11;;;12.71;58.73
59759;BME280;61150;62.516;17.862;2022-08-30T05:00:11;102013.86;;;12.73;59.01
59759;BME280;61150;62.516;17.862;2022-08-30T05:02:40;102012.18;;;12.84;58.54
59759;BME280;61150;62.516;17.862;2022-08-30T05:05:09;102014.97;;;12.98;57.85
59759;BME280;61150;62.516;17.862;2022-08-30T05:07:37;102015.27;;;13.13;57.35
59759;BME280;61150;62.516;17.862;2022-08-30T05:10:07;102020.05;;;13.25;57.24
59759;BME280;61150;62.516;17.862;2022-08-30T05:12:35;102018.47;;;13.31;57.44
59759;BME280;61150;62.516;17.862;2022-08-30T05:15:05;102019.82;;;13.32;57.33
59759;BME280;61150;62.516;17.862;2022-08-30T05:17:36;102016.55;;;13.48;56.94
59759;BME280;61150;62.516;17.862;2022-08-30T05:20:08;102015.64;;;13.66;56.34
59759;BME280;61150;62.516;17.862;2022-08-30T05:22:40;102011.78;;;13.71;56.39
59759;BME280;61150;62.516;17.862;2022-08-30T05:25:10;102008.66;;;13.82;56.09
59759;BME280;61150;62.516;17.862;2022-08-30T05:27:38;102009.60;;;13.86;56.09
59759;BME280;61150;62.516;17.862;2022-08-30T05:30:09;102011.61;;;14.04;55.92
59759;BME280;61150;62.516;17.862;2022-08-30T05:32:38;102013.98;;;14.12;55.69
59759;BME280;61150;62.516;17.862;2022-08-30T05:35:10;102011.22;;;14.01;55.29
59759;BME280;61150;62.516;17.862;2022-08-30T05:37:39;102012.08;;;13.93;55.96
59759;BME280;61150;62.516;17.862;2022-08-30T05:40:09;102014.94;;;14.02;55.78
59759;BME280;61150;62.516;17.862;2022-08-30T05:42:38;102014.90;;;13.98;55.57
59759;BME280;61150;62.516;17.862;2022-08-30T05:45:08;102011.85;;;14.24;56.06
59759;BME280;61150;62.516;17.862;2022-08-30T05:47:38;102017.59;;;14.25;54.77
59759;BME280;61150;62.516;17.862;2022-08-30T05:50:08;102015.01;;;14.36;54.82
59759;BME280;61150;62.516;17.862;2022-08-30T05:52:39;102014.80;;;14.58;54.80
59759;BME280;61150;62.516;17.862;2022-08-30T05:55:09;102014.79;;;14.78;54.24
59759;BME280;61150;62.516;17.862;2022-08-30T05:57:39;102013.78;;;14.98;53.61
59759;BME280;61150;62.516;17.862;2022-08-30T06:00:12;102013.96;;;14.94;53.52
59759;BME280;61150;62.516;17.862;2022-08-30T06:02:41;102011.74;;;15.03;52.63
59759;BME280;61150;62.516;17.862;2022-08-30T06:06:15;102012.48;;;15.07;52.79
59759;BME280;61150;62.516;17.862;2022-08-30T06:08:43;102005.87;;;14.89;52.86
59759;BME280;61150;62.516;17.862;2022-08-30T06:11:12;102010.55;;;14.81;52.84
59759;BME280;61150;62.516;17.862;2022-08-30T06:13:40;102013.07;;;14.62;52.60
59759;BME280;61150;62.516;17.862;2022-08-30T06:16:10;102019.14;;;14.67;53.21
59759;BME280;61150;62.516;17.862;2022-08-30T06:18:40;102018.26;;;14.59;53.11
59759;BME280;61150;62.516;17.862;2022-08-30T06:21:15;102021.75;;;14.59;53.32
59759;BME280;61150;62.516;17.862;2022-08-30T06:23:45;102021.76;;;14.52;53.67
59759;BME280;61150;62.516;17.862;2022-08-30T06:26:13;102021.37;;;14.58;53.98
59759;BME280;61150;62.516;17.862;2022-08-30T06:28:42;102019.58;;;14.65;53.68
59759;BME280;61150;62.516;17.862;2022-08-30T06:31:13;102021.21;;;14.66;53.71
59759;BME280;61150;62.516;17.862;2022-08-30T06:33:43;102018.92;;;14.60;53.60
59759;BME280;61150;62.516;17.862;2022-08-30T06:36:14;102026.39;;;14.71;52.76
59759;BME280;61150;62.516;17.862;2022-08-30T06:38:42;102029.61;;;14.78;53.59
59759;BME280;61150;62.516;17.862;2022-08-30T06:41:13;102033.05;;;14.84;52.57
59759;BME280;61150;62.516;17.862;2022-08-30T06:43:42;102029.46;;;14.87;52.88
59759;BME280;61150;62.516;17.862;2022-08-30T06:46:15;102025.55;;;14.92;53.15
59759;BME280;61150;62.516;17.862;2022-08-30T06:48:45;102035.27;;;15.13;52.72
59759;BME280;61150;62.516;17.862;2022-08-30T06:51:14;102035.05;;;15.11;51.82
59759;BME280;61150;62.516;17.862;2022-08-30T06:53:42;102036.98;;;15.21;51.96
59759;BME280;61150;62.516;17.862;2022-08-30T06:56:11;102036.58;;;15.17;52.77
59759;BME280;61150;62.516;17.862;2022-08-30T06:58:40;102039.16;;;15.16;52.64
59759;BME280;61150;62.516;17.862;2022-08-30T07:02:56;102038.77;;;14.63;53.17
59759;BME280;61150;62.516;17.862;2022-08-30T07:05:25;102040.99;;;14.58;53.15
59759;BME280;61150;62.516;17.862;2022-08-30T07:07:53;102046.84;;;14.66;54.06
59759;BME280;61150;62.516;17.862;2022-08-30T07:10:22;102050.69;;;14.61;52.91
59759;BME280;61150;62.516;17.862;2022-08-30T07:12:51;102059.56;;;14.71;53.53
59759;BME280;61150;62.516;17.862;2022-08-30T07:15:19;102060.36;;;14.78;53.38
59759;BME280;61150;62.516;17.862;2022-08-30T07:17:48;102062.22;;;14.89;53.17
59759;BME280;61150;62.516;17.862;2022-08-30T07:20:17;102065.04;;;15.02;53.37
59759;BME280;61150;62.516;17.862;2022-08-30T07:22:45;102065.95;;;15.14;53.04
59759;BME280;61150;62.516;17.862;2022-08-30T07:25:15;102068.33;;;15.16;52.77
59759;BME280;61150;62.516;17.862;2022-08-30T07:27:43;102067.48;;;15.21;52.65
59759;BME280;61150;62.516;17.862;2022-08-30T07:30:12;102065.41;;;15.29;53.11
59759;BME280;61150;62.516;17.862;2022-08-30T07:32:40;102070.11;;;15.34;51.58
59759;BME280;61150;62.516;17.862;2022-08-30T07:35:09;102064.30;;;15.33;51.67
59759;BME280;61150;62.516;17.862;2022-08-30T07:37:38;102064.16;;;15.37;52.82
59759;BME280;61150;62.516;17.862;2022-08-30T07:40:08;102068.31;;;15.52;52.45
59759;BME280;61150;62.516;17.862;2022-08-30T07:42:37;102064.26;;;15.72;51.52
59759;BME280;61150;62.516;17.862;2022-08-30T07:45:08;102070.88;;;15.68;51.33
59759;BME280;61150;62.516;17.862;2022-08-30T07:47:37;102071.91;;;15.70;50.67
59759;BME280;61150;62.516;17.862;2022-08-30T07:50:06;102072.34;;;15.62;51.44
59759;BME280;61150;62.516;17.862;2022-08-30T07:52:36;102074.53;;;15.60;51.39
59759;BME280;61150;62.516;17.862;2022-08-30T07:55:05;102072.75;;;15.52;51.09
59759;BME280;61150;62.516;17.862;2022-08-30T07:57:33;102074.66;;;15.48;51.62
59759;BME280;61150;62.516;17.862;2022-08-30T08:00:04;102075.78;;;15.26;52.45
59759;BME280;61150;62.516;17.862;2022-08-30T08:02:33;102080.29;;;15.14;52.71
59759;BME280;61150;62.516;17.862;2022-08-30T08:05:02;102081.53;;;15.04;52.71
59759;BME280;61150;62.516;17.862;2022-08-30T08:07:31;102085.97;;;15.08;53.28
59759;BME280;61150;62.516;17.862;2022-08-30T08:09:59;102084.77;;;15.08;52.80
59759;BME280;61150;62.516;17.862;2022-08-30T08:12:28;102087.34;;;15.04;53.47
59759;BME280;61150;62.516;17.862;2022-08-30T08:14:57;102086.79;;;15.10;53.40
59759;BME280;61150;62.516;17.862;2022-08-30T08:17:25;102088.74;;;15.03;53.18
59759;BME280;61150;62.516;17.862;2022-08-30T08:19:54;102088.38;;;15.09;53.19
59759;BME280;61150;62.516;17.862;2022-08-30T08:22:23;102088.20;;;14.94;53.69
59759;BME280;61150;62.516;17.862;2022-08-30T08:24:52;102089.85;;;14.87;53.69
59759;BME280;61150;62.516;17.862;2022-08-30T08:27:20;102092.38;;;15.01;53.78
59759;BME280;61150;62.516;17.862;2022-08-30T08:29:49;102094.37;;;14.96;53.98
59759;BME280;61150;62.516;17.862;2022-08-30T08:32:18;102091.86;;;15.01;54.34
59759;BME280;61150;62.516;17.862;2022-08-30T08:34:47;102098.46;;;15.01;55.04
59759;BME280;61150;62.516;17.862;2022-08-30T08:37:15;102099.32;;;15.08;55.79
59759;BME280;61150;62.516;17.862;2022-08-30T08:39:44;102100.28;;;15.07;54.32
59759;BME280;61150;62.516;17.862;2022-08-30T08:42:18;102099.54;;;15.23;54.42
59759;BME280;61150;62.516;17.862;2022-08-30T08:44:54;102099.16;;;15.44;54.70
59759;BME280;61150;62.516;17.862;2022-08-30T08:47:36;102098.43;;;15.75;53.69
59759;BME280;61150;62.516;17.862;2022-08-30T08:50:10;102098.65;;;16.05;52.62
59759;BME280;61150;62.516;17.862;2022-08-30T08:52:48;102099.21;;;16.53;51.89
59759;BME280;61150;62.516;17.862;2022-08-30T08:55:19;102099.22;;;16.87;51.74
59759;BME280;61150;62.516;17.862;2022-08-30T08:57:49;102095.97;;;17.15;50.85
59759;BME280;61150;62.516;17.862;2022-08-30T09:00:18;102092.51;;;17.38;48.01
59759;BME280;61150;62.516;17.862;2022-08-30T09:02:54;102092.84;;;17.58;48.93
59759;BME280;61150;62.516;17.862;2022-08-30T09:05:27;102093.44;;;17.58;48.26
59759;BME280;61150;62.516;17.862;2022-08-30T09:08:00;102097.11;;;17.50;47.44
59759;BME280;61150;62.516;17.862;2022-08-30T09:10:31;102098.81;;;17.62;47.83
59759;BME280;61150;62.516;17.862;2022-08-30T09:13:01;102105.11;;;17.43;48.91
59759;BME280;61150;62.516;17.862;2022-08-30T09:15:32;102107.02;;;17.44;48.56
59759;BME280;61150;62.516;17.862;2022-08-30T09:18:04;102101.61;;;17.50;49.63
59759;BME280;61150;62.516;17.862;2022-08-30T09:20:36;102105.24;;;17.49;48.41
59759;BME280;61150;62.516;17.862;2022-08-30T09:23:21;102111.15;;;17.50;47.77
59759;BME280;61150;62.516;17.862;2022-08-30T09:25:52;102111.88;;;17.47;46.98
59759;BME280;61150;62.516;17.862;2022-08-30T09:28:24;102116.35;;;17.37;47.95
59759;BME280;61150;62.516;17.862;2022-08-30T09:31:00;102116.76;;;17.49;48.78
59759;BME280;61150;62.516;17.862;2022-08-30T09:33:29;102117.70;;;17.34;49.44
59759;BME280;61150;62.516;17.862;2022-08-30T09:36:12;102119.41;;;17.45;47.08
59759;BME280;61150;62.516;17.862;2022-08-30T09:38:41;102121.52;;;17.43;48.71
59759;BME280;61150;62.516;17.862;2022-08-30T09:41:28;102116.40;;;17.67;47.43
59759;BME280;61150;62.516;17.862;2022-08-30T09:44:09;102115.74;;;18.58;47.16
59759;BME280;61150;62.516;17.862;2022-08-30T09:46:48;102114.82;;;19.56;43.11
59759;BME280;61150;62.516;17.862;2022-08-30T09:49:34;102117.66;;;19.95;42.69
59759;BME280;61150;62.516;17.862;2022-08-30T09:52:12;102120.65;;;20.06;43.91
59759;BME280;61150;62.516;17.862;2022-08-30T09:54:55;102127.42;;;20.01;45.15
59759;BME280;61150;62.516;17.862;2022-08-30T09:57:35;102123.59;;;20.01;43.74
59759;BME280;61150;62.516;17.862;2022-08-30T10:03:01;102129.52;;;20.41;43.39
59759;BME280;61150;62.516;17.862;2022-08-30T10:05:37;102133.73;;;20.63;42.66
59759;BME280;61150;62.516;17.862;2022-08-30T10:08:16;102129.40;;;20.55;43.62
59759;BME280;61150;62.516;17.862;2022-08-30T10:10:50;102124.43;;;21.08;43.28
59759;BME280;61150;62.516;17.862;2022-08-30T10:13:31;102124.59;;;20.80;41.12
59759;BME280;61150;62.516;17.862;2022-08-30T10:16:13;102120.37;;;21.27;41.46
59759;BME280;61150;62.516;17.862;2022-08-30T10:18:49;102115.01;;;21.21;41.80
59759;BME280;61150;62.516;17.862;2022-08-30T10:21:25;102114.58;;;21.27;41.69
59759;BME280;61150;62.516;17.862;2022-08-30T10:24:00;102114.32;;;21.57;40.76
59759;BME280;61150;62.516;17.862;2022-08-30T10:26:32;102114.39;;;21.75;41.76
59759;BME280;61150;62.516;17.862;2022-08-30T10:29:04;102108.35;;;21.44;40.98
59759;BME280;61150;62.516;17.862;2022-08-30T10:31:40;102116.34;;;20.93;41.10
59759;BME280;61150;62.516;17.862;2022-08-30T10:34:14;102128.45;;;20.26;42.43
59759;BME280;61150;62.516;17.862;2022-08-30T10:36:48;102127.13;;;19.70;42.35
59759;BME280;61150;62.516;17.862;2022-08-30T10:39:23;102135.22;;;19.15;43.55
59759;BME280;61150;62.516;17.862;2022-08-30T10:41:59;102137.57;;;18.89;44.56
59759;BME280;61150;62.516;17.862;2022-08-30T10:44:32;102139.19;;;18.71;46.09
59759;BME280;61150;62.516;17.862;2022-08-30T10:47:08;102141.83;;;18.33;47.20
59759;BME280;61150;62.516;17.862;2022-08-30T10:49:43;102145.98;;;18.29;48.82
59759;BME280;61150;62.516;17.862;2022-08-30T10:52:24;102157.45;;;18.06;50.68
59759;BME280;61150;62.516;17.862;2022-08-30T10:54:59;102156.52;;;18.26;50.56
59759;BME280;61150;62.516;17.862;2022-08-30T10:57:28;102176.69;;;18.09;49.92
59759;BME280;61150;62.516;17.862;2022-08-30T10:59:59;102182.05;;;17.84;47.68
59759;BME280;61150;62.516;17.862;2022-08-30T11:02:56;102194.00;;;17.45;49.62
59759;BME280;61150;62.516;17.862;2022-08-30T11:05:57;102203.39;;;16.67;53.57
59759;BME280;61150;62.516;17.862;2022-08-30T11:08:42;102200.09;;;15.99;55.57
59759;BME280;61150;62.516;17.862;2022-08-30T11:11:19;102199.19;;;15.44;58.37
59759;BME280;61150;62.516;17.862;2022-08-30T11:13:54;102201.74;;;15.09;59.84
59759;BME280;61150;62.516;17.862;2022-08-30T11:16:34;102200.10;;;14.80;60.79
59759;BME280;61150;62.516;17.862;2022-08-30T11:19:14;102198.01;;;14.75;61.52
59759;BME280;61150;62.516;17.862;2022-08-30T11:21:44;102202.31;;;14.62;62.25
59759;BME280;61150;62.516;17.862;2022-08-30T11:24:15;102200.37;;;14.69;62.27
59759;BME280;61150;62.516;17.862;2022-08-30T11:26:54;102198.33;;;14.64;62.21
59759;BME280;61150;62.516;17.862;2022-08-30T11:29:32;102196.90;;;14.60;62.00
59759;BME280;61150;62.516;17.862;2022-08-30T11:32:21;102198.85;;;14.59;62.09
59759;BME280;61150;62.516;17.862;2022-08-30T11:34:53;102196.87;;;14.67;63.60
59759;BME280;61150;62.516;17.862;2022-08-30T11:37:34;102192.51;;;14.61;63.80
59759;BME280;61150;62.516;17.862;2022-08-30T11:40:08;102193.45;;;14.63;63.97
59759;BME280;61150;62.516;17.862;2022-08-30T11:42:40;102194.23;;;14.96;65.83
59759;BME280;61150;62.516;17.862;2022-08-30T11:45:45;102192.05;;;15.46;67.11
59759;BME280;61150;62.516;17.862;2022-08-30T11:48:42;102188.92;;;16.17;67.19
59759;BME280;61150;62.516;17.862;2022-08-30T11:51:33;102190.84;;;16.51;66.15
59759;BME280;61150;62.516;17.862;2022-08-30T11:54:15;102184.52;;;16.93;65.63
59759;BME280;61150;62.516;17.862;2022-08-30T11:56:53;102193.41;;;16.80;64.21
59759;BME280;61150;62.516;17.862;2022-08-30T11:59:32;102189.14;;;16.86;63.73
59759;BME280;61150;62.516;17.862;2022-08-30T12:02:06;102188.22;;;16.78;63.20
59759;BME280;61150;62.516;17.862;2022-08-30T12:04:43;102189.20;;;16.83;62.97
59759;BME280;61150;62.516;17.862;2022-08-30T12:07:55;102188.38;;;16.92;63.71
59759;BME280;61150;62.516;17.862;2022-08-30T12:10:36;102186.99;;;17.25;62.66
59759;BME280;61150;62.516;17.862;2022-08-30T12:13:05;102187.05;;;17.51;62.45
59759;BME280;61150;62.516;17.862;2022-08-30T12:15:54;102189.57;;;17.80;63.02
59759;BME280;61150;62.516;17.862;2022-08-30T12:18:32;102185.63;;;17.74;61.92
59759;BME280;61150;62.516;17.862;2022-08-30T12:21:07;102183.19;;;17.94;57.80
59759;BME280;61150;62.516;17.862;2022-08-30T12:23:40;102187.32;;;17.96;58.90
59759;BME280;61150;62.516;17.862;2022-08-30T12:26:17;102184.83;;;18.06;58.58
59759;BME280;61150;62.516;17.862;2022-08-30T12:28:49;102184.45;;;18.41;57.46
59759;BME280;61150;62.516;17.862;2022-08-30T12:31:21;102184.88;;;18.65;59.27
59759;BME280;61150;62.516;17.862;2022-08-30T12:33:53;102181.36;;;18.96;58.61
59759;BME280;61150;62.516;17.862;2022-08-30T12:36:32;102190.29;;;19.30;55.77
59759;BME280;61150;62.516;17.862;2022-08-30T12:39:08;102189.04;;;18.94;55.07
59759;BME280;61150;62.516;17.862;2022-08-30T12:41:38;102197.30;;;18.56;54.68
59759;BME280;61150;62.516;17.862;2022-08-30T12:44:09;102193.11;;;18.42;54.99
59759;BME280;61150;62.516;17.862;2022-08-30T12:46:40;102190.00;;;18.26;55.21
59759;BME280;61150;62.516;17.862;2022-08-30T12:49:08;102188.84;;;18.15;54.92
59759;BME280;61150;62.516;17.862;2022-08-30T12:51:39;102190.80;;;18.06;56.20
59759;BME280;61150;62.516;17.862;2022-08-30T12:54:15;102188.45;;;17.76;56.29
59759;BME280;61150;62.516;17.862;2022-08-30T12:56:49;102188.94;;;17.71;57.00
59759;BME280;61150;62.516;17.862;2022-08-30T12:59:53;102182.93;;;17.57;55.77
59759;BME280;61150;62.516;17.862;2022-08-30T13:02:56;102186.43;;;16.86;57.73
59759;BME280;61150;62.516;17.862;2022-08-30T13:05:41;102188.69;;;16.77;59.34
59759;BME280;61150;62.516;17.862;2022-08-30T13:08:21;102189.51;;;16.66;59.54
59759;BME280;61150;62.516;17.862;2022-08-30T13:10:55;102190.31;;;16.61;59.43